Redmond, WA (98052)

10:52 AM PDT on September 02, 2015 (GMT -0700)
Education Hill - Top | | Change Station
CLOSE
Current Station
Personal Weather Station
Location: Redmond, WA
Elevation: 308 ft
Nearby Weather Stations

Elev 308 ft 47.70 °N, 122.12 °W | Updated 19 seconds ago

Mostly Cloudy
Mostly Cloudy
58.8 °F
Feels Like 58.8 °F
N
0.0
Wind Variable Wind from North
Gusts 0.0 mph

Today
High -- | Low -- °F
--% Chance of Precip.
Yesterday
High -- | Low -- °F
Precip. -- in
6:28 AM 7:47 PM
Waning Gibbous, 78% visible
Pressure 29.90 in
Visibility 10.0 miles
Clouds Mostly Cloudy 1400 ft
Mostly Cloudy 2300 ft
Dew Point 53 °F
Humidity 80%
Rainfall 0.01 in
Snow Depth Not available.
UV 2 out of 12
Pollen .50 out of 12
Air Quality Not available.
Flu Activity Not available.
METAR KBFI 021653Z 20005KT 10SM BKN014 BKN023 17/11 A2990 RMK AO2 SLP123 T01670106
Pressure 29.90 in
Visibility 10.0 miles
Clouds Mostly Cloudy 1400 ft
Mostly Cloudy 2300 ft
Dew Point 53 °F
Humidity 80%
Rainfall 0.01 in
Snow Depth Not available.
UV 2 out of 12
Pollen .50 out of 12
Air Quality Not available.
Flu Activity Not available.
METAR KBFI 021653Z 20005KT 10SM BKN014 BKN023 17/11 A2990 RMK AO2 SLP123 T01670106

10-Day Weather Forecast

×

Almanac

Astronomy

Sep. 02, 2015 Rise Set
Actual Time
Civil Twilight
Nautical Twilight
Astronomical Twilight
Moon
Length of Visible Light
Length of Day
Tomorrow will be .
, % of the Moon is Illuminated

Today's Extremes

State Highs State Lows

Community

WunderPhotos

Upload Photos

1,851,789 photos uploaded!

WunderBlogs® & News

Nearby

Air Quality

  Air Quality AQ Index Pollutant
Not available.

Snow Depth

Station Depth Elevation

Earthquake Activity

City Distance Mag. Time & Date
Minimum magnitude displayed is 2.5.

Coastal Water Temperatures

Place Temperature

Stations

Nearby Weather Stations

Station Location Temp. Windchill Dew Point Humidity Wind Precip. Elev Updated Type